createdAt,value
2017-07-07T00:00:08.159Z,99.99
2017-07-07T00:01:09.597Z,99.99
2017-07-07T00:02:11.015Z,99.99
2017-07-07T00:03:12.526Z,99.99
2017-07-07T00:04:13.966Z,99.99
2017-07-07T00:05:15.397Z,99.99
2017-07-07T00:06:16.823Z,99.99
2017-07-07T00:07:18.260Z,99.99
2017-07-07T00:08:19.677Z,99.99
2017-07-07T00:09:21.111Z,99.99
2017-07-07T00:10:22.529Z,99.99
2017-07-07T00:11:23.950Z,99.99
2017-07-07T00:12:25.380Z,99.99
2017-07-07T00:13:26.803Z,99.99
2017-07-07T00:14:28.230Z,99.99
2017-07-07T00:15:29.656Z,99.99
2017-07-07T00:16:31.085Z,99.99
2017-07-07T00:17:32.507Z,99.99
2017-07-07T00:18:33.930Z,99.99
2017-07-07T00:19:35.356Z,99.99
2017-07-07T00:20:36.778Z,99.99
2017-07-07T00:21:38.203Z,99.99
2017-07-07T00:22:39.625Z,99.99
2017-07-07T00:23:41.063Z,99.99
2017-07-07T00:24:42.495Z,99.99
2017-07-07T00:25:43.921Z,99.99
2017-07-07T00:26:45.350Z,99.99
2017-07-07T00:27:46.780Z,99.99
2017-07-07T00:28:48.199Z,99.99
2017-07-07T00:29:49.626Z,99.99
2017-07-07T00:30:51.056Z,99.99
2017-07-07T00:31:52.591Z,99.99
2017-07-07T00:32:54.010Z,99.99
2017-07-07T00:33:55.436Z,99.99
2017-07-07T00:34:56.870Z,99.99
2017-07-07T00:35:58.304Z,99.99
2017-07-07T00:36:59.730Z,99.99
2017-07-07T00:38:01.157Z,99.99
2017-07-07T00:39:02.594Z,99.99
2017-07-07T00:40:04.013Z,99.99
2017-07-07T00:41:05.436Z,99.99
2017-07-07T00:42:06.861Z,99.99
2017-07-07T00:43:08.290Z,99.99
2017-07-07T00:44:09.709Z,99.99
2017-07-07T00:45:11.133Z,99.99
2017-07-07T00:46:12.558Z,99.99
2017-07-07T00:47:13.984Z,99.99
2017-07-07T00:48:15.416Z,99.99
2017-07-07T00:49:16.845Z,99.99
2017-07-07T00:50:18.275Z,99.99
2017-07-07T00:51:19.757Z,99.99
2017-07-07T00:52:21.120Z,99.99
2017-07-07T00:53:22.548Z,99.99
2017-07-07T00:54:23.976Z,99.99
2017-07-07T00:55:25.391Z,99.99
2017-07-07T00:56:26.818Z,99.99
2017-07-07T00:57:28.245Z,99.99
2017-07-07T00:58:29.670Z,99.99
2017-07-07T00:59:31.091Z,99.99
2017-07-07T01:00:32.513Z,99.99
2017-07-07T01:01:33.941Z,99.99
2017-07-07T01:02:35.368Z,99.99
2017-07-07T01:03:36.802Z,99.99
2017-07-07T01:04:38.226Z,99.99
2017-07-07T01:05:39.657Z,99.99
2017-07-07T01:06:41.080Z,99.99
2017-07-07T01:07:42.645Z,99.99
2017-07-07T01:08:44.070Z,99.99
2017-07-07T01:09:45.502Z,99.99
2017-07-07T01:10:46.931Z,99.99
2017-07-07T01:11:48.351Z,99.99
2017-07-07T01:12:49.771Z,99.99
2017-07-07T01:13:51.191Z,99.99
2017-07-07T01:14:52.616Z,99.99
2017-07-07T01:15:54.139Z,99.99
2017-07-07T01:16:55.563Z,99.99
2017-07-07T01:17:56.982Z,99.99
2017-07-07T01:18:58.410Z,99.99
2017-07-07T01:19:59.914Z,99.99
2017-07-07T01:21:01.336Z,99.99
2017-07-07T01:22:02.763Z,99.99
2017-07-07T01:23:04.195Z,99.99
2017-07-07T01:24:05.627Z,99.99
2017-07-07T01:25:07.056Z,99.99
2017-07-07T01:26:08.483Z,99.99
2017-07-07T01:27:09.992Z,99.99
2017-07-07T01:28:11.420Z,99.99
2017-07-07T01:29:12.841Z,99.99
2017-07-07T01:30:14.262Z,99.99
2017-07-07T01:31:15.701Z,99.99
2017-07-07T01:32:17.135Z,99.99
2017-07-07T01:33:18.569Z,99.99
2017-07-07T01:34:20.014Z,99.99
2017-07-07T01:35:21.436Z,99.99
2017-07-07T01:36:22.860Z,99.99
2017-07-07T01:37:24.291Z,99.99
2017-07-07T01:38:25.709Z,99.99
2017-07-07T01:39:27.137Z,99.99
2017-07-07T01:40:28.571Z,99.99
2017-07-07T01:41:29.990Z,99.99
2017-07-07T01:42:31.412Z,99.99
2017-07-07T01:43:32.832Z,99.99
2017-07-07T01:44:34.255Z,99.99
2017-07-07T01:45:35.679Z,99.99
2017-07-07T01:46:37.102Z,99.99
2017-07-07T01:47:38.525Z,99.99
2017-07-07T01:48:39.957Z,99.99
2017-07-07T01:49:41.377Z,99.99
2017-07-07T01:50:42.807Z,99.99
2017-07-07T01:51:44.228Z,99.99
2017-07-07T01:52:45.646Z,99.99
2017-07-07T01:53:47.064Z,99.99
2017-07-07T01:54:48.493Z,99.99
2017-07-07T01:55:49.913Z,99.99
2017-07-07T01:56:51.342Z,99.99
2017-07-07T01:57:52.780Z,99.99
2017-07-07T01:58:54.185Z,99.99
2017-07-07T01:59:55.618Z,99.99
2017-07-07T02:00:57.048Z,99.99
2017-07-07T02:01:58.487Z,99.99
2017-07-07T02:02:59.908Z,99.99
2017-07-07T02:04:01.332Z,99.99
2017-07-07T02:05:02.767Z,99.99
2017-07-07T02:06:04.202Z,99.99
2017-07-07T02:07:05.627Z,99.99
2017-07-07T02:08:07.058Z,99.99
2017-07-07T02:09:08.481Z,99.99
2017-07-07T02:10:09.916Z,99.99
2017-07-07T02:11:11.321Z,99.99
2017-07-07T02:12:12.747Z,99.99
2017-07-07T02:13:14.168Z,99.99
2017-07-07T02:14:15.589Z,99.99
2017-07-07T02:15:17.010Z,99.99
2017-07-07T02:16:18.432Z,99.99
2017-07-07T02:17:19.874Z,99.99
2017-07-07T02:18:21.303Z,99.99
2017-07-07T02:19:22.727Z,99.99
2017-07-07T02:20:24.156Z,99.99
2017-07-07T02:21:25.584Z,99.99
2017-07-07T02:22:27.006Z,99.99
2017-07-07T02:23:28.431Z,99.99
2017-07-07T02:24:29.936Z,99.99
2017-07-07T02:25:31.359Z,99.99
2017-07-07T02:26:32.788Z,99.99
2017-07-07T02:27:34.898Z,99.99
2017-07-07T02:28:36.326Z,99.99
2017-07-07T02:29:37.749Z,99.99
2017-07-07T02:30:39.190Z,99.99
2017-07-07T02:31:40.696Z,99.99
2017-07-07T02:32:42.123Z,99.99
2017-07-07T02:33:43.546Z,99.99
2017-07-07T02:34:45.000Z,99.99
2017-07-07T02:35:46.424Z,99.99
2017-07-07T02:36:47.849Z,99.99
2017-07-07T02:37:49.265Z,99.99
2017-07-07T02:38:50.698Z,99.99
2017-07-07T02:39:52.133Z,99.99
2017-07-07T02:40:53.562Z,99.99
2017-07-07T02:41:54.986Z,99.99
2017-07-07T02:42:56.408Z,99.99
2017-07-07T02:43:57.831Z,99.99
2017-07-07T02:44:59.255Z,99.99
2017-07-07T02:46:00.694Z,99.99
2017-07-07T02:47:02.117Z,99.99
2017-07-07T02:48:03.538Z,99.99
2017-07-07T02:49:04.968Z,99.99
2017-07-07T02:50:06.390Z,99.99
2017-07-07T02:51:07.818Z,99.99
2017-07-07T02:52:09.235Z,99.99
2017-07-07T02:53:10.656Z,99.99
2017-07-07T02:54:12.081Z,99.99
2017-07-07T02:55:13.507Z,99.99
2017-07-07T02:56:14.941Z,99.99
2017-07-07T02:57:16.366Z,99.99
2017-07-07T02:58:17.802Z,99.99
2017-07-07T02:59:19.230Z,99.99
2017-07-07T03:00:20.655Z,99.99
2017-07-07T03:01:22.083Z,99.99
2017-07-07T03:02:23.502Z,99.99
2017-07-07T03:03:24.932Z,99.99
2017-07-07T03:04:26.357Z,99.99
2017-07-07T03:05:27.790Z,99.99
2017-07-07T03:06:29.222Z,99.99
2017-07-07T03:07:30.646Z,99.99
2017-07-07T03:08:32.083Z,99.99
2017-07-07T03:09:33.509Z,99.99
2017-07-07T03:10:34.928Z,99.99
2017-07-07T03:11:36.357Z,99.99
2017-07-07T03:12:37.814Z,99.99
2017-07-07T03:13:39.237Z,99.99
2017-07-07T03:14:40.655Z,99.99
2017-07-07T03:15:42.082Z,99.99
2017-07-07T03:16:43.502Z,99.99
2017-07-07T03:17:44.926Z,99.99
2017-07-07T03:18:46.366Z,99.99
2017-07-07T03:19:47.789Z,99.99
2017-07-07T03:20:49.214Z,99.99
2017-07-07T03:21:50.635Z,99.99
2017-07-07T03:22:52.051Z,99.99
2017-07-07T03:23:53.477Z,99.99
2017-07-07T03:24:54.903Z,99.99
2017-07-07T03:25:56.332Z,99.99
2017-07-07T03:26:57.750Z,99.99
2017-07-07T03:27:59.180Z,99.99
2017-07-07T03:29:00.726Z,99.99
2017-07-07T03:30:02.095Z,99.99
2017-07-07T03:31:03.521Z,99.99
2017-07-07T03:32:04.948Z,99.99
2017-07-07T03:33:06.371Z,99.99
2017-07-07T03:34:07.797Z,99.99
2017-07-07T03:35:09.211Z,99.99
2017-07-07T03:36:10.640Z,99.99
2017-07-07T03:37:12.059Z,99.99
2017-07-07T03:38:13.478Z,99.99
2017-07-07T03:39:14.908Z,99.99
2017-07-07T03:40:16.329Z,99.99
2017-07-07T03:41:17.755Z,99.99
2017-07-07T03:42:19.179Z,99.99
2017-07-07T03:43:20.598Z,99.99
2017-07-07T03:44:22.024Z,99.99
2017-07-07T03:45:23.460Z,99.99
2017-07-07T03:46:24.886Z,99.99
2017-07-07T03:47:26.311Z,99.99
2017-07-07T03:48:27.731Z,99.99
2017-07-07T03:49:29.157Z,99.99
2017-07-07T03:50:30.580Z,99.99
2017-07-07T03:51:32.011Z,99.99
2017-07-07T03:52:33.441Z,99.99
2017-07-07T03:53:34.874Z,99.99
2017-07-07T03:54:36.305Z,99.99
2017-07-07T03:55:37.735Z,99.99
2017-07-07T03:56:39.160Z,99.99
2017-07-07T03:57:40.585Z,99.99
2017-07-07T03:58:42.006Z,99.99
2017-07-07T03:59:43.430Z,99.99
2017-07-07T04:00:44.901Z,99.99
2017-07-07T04:01:46.291Z,99.99
2017-07-07T04:02:47.716Z,99.99
2017-07-07T04:03:49.148Z,99.99
2017-07-07T04:04:50.581Z,99.99
2017-07-07T04:05:52.015Z,99.99
2017-07-07T04:06:53.443Z,99.99
2017-07-07T04:07:54.862Z,99.99
2017-07-07T04:08:56.291Z,99.99
2017-07-07T04:09:57.720Z,99.99
2017-07-07T04:10:59.142Z,99.99
2017-07-07T04:12:00.572Z,99.99
2017-07-07T04:13:02.011Z,99.99
2017-07-07T04:14:03.438Z,99.99
2017-07-07T04:15:04.864Z,99.99
2017-07-07T04:16:06.319Z,99.99
2017-07-07T04:17:07.743Z,99.99
2017-07-07T04:18:09.172Z,99.99
2017-07-07T04:19:10.612Z,99.99
2017-07-07T04:20:12.098Z,99.99
2017-07-07T04:21:13.522Z,99.99
2017-07-07T04:22:14.946Z,99.99
2017-07-07T04:23:16.376Z,99.99
2017-07-07T04:24:17.899Z,99.99
2017-07-07T04:25:19.330Z,99.99
2017-07-07T04:26:20.759Z,99.99
2017-07-07T04:27:22.188Z,99.99
2017-07-07T04:28:23.621Z,99.99
2017-07-07T04:29:25.047Z,99.99
2017-07-07T04:30:26.478Z,99.99
2017-07-07T04:31:27.917Z,99.99
2017-07-07T04:32:29.349Z,99.99
2017-07-07T04:33:30.787Z,99.99
2017-07-07T04:34:32.219Z,99.99
2017-07-07T04:35:33.646Z,99.99
2017-07-07T04:36:35.072Z,99.99
2017-07-07T04:37:36.490Z,99.99
2017-07-07T04:38:37.926Z,99.99
2017-07-07T04:39:39.358Z,99.99
2017-07-07T04:40:40.777Z,99.99
2017-07-07T04:41:42.210Z,99.99
2017-07-07T04:42:43.641Z,99.99
2017-07-07T04:43:45.060Z,99.99
2017-07-07T04:44:46.485Z,99.99
2017-07-07T04:45:47.903Z,99.99
2017-07-07T04:46:49.339Z,99.99
2017-07-07T04:47:50.769Z,99.99
2017-07-07T04:48:52.195Z,99.99
2017-07-07T04:49:53.622Z,99.99
2017-07-07T04:50:55.056Z,99.99
2017-07-07T04:51:56.472Z,99.99
2017-07-07T04:52:57.901Z,99.99
2017-07-07T04:53:59.331Z,99.99
2017-07-07T04:55:00.761Z,99.99
2017-07-07T04:56:02.187Z,99.99
2017-07-07T04:57:03.619Z,99.99
2017-07-07T04:58:05.051Z,99.99
2017-07-07T04:59:06.473Z,99.99
2017-07-07T05:00:07.901Z,99.99
2017-07-07T05:01:09.335Z,99.99
2017-07-07T05:02:10.763Z,99.99
2017-07-07T05:03:12.185Z,99.99
2017-07-07T05:04:13.625Z,99.99
2017-07-07T05:05:15.056Z,99.99
2017-07-07T05:06:16.487Z,99.99
2017-07-07T05:07:17.914Z,99.99
2017-07-07T05:08:19.885Z,99.99
2017-07-07T05:09:21.313Z,99.99
2017-07-07T05:10:22.737Z,99.99
2017-07-07T05:11:24.159Z,99.99
2017-07-07T05:12:25.593Z,99.99
2017-07-07T05:13:27.014Z,99.99
2017-07-07T05:14:28.442Z,99.99
2017-07-07T05:15:29.872Z,99.99
2017-07-07T05:16:31.300Z,99.99
2017-07-07T05:17:32.739Z,99.99
2017-07-07T05:18:34.160Z,99.99
2017-07-07T05:19:35.584Z,99.99
2017-07-07T05:20:37.008Z,99.99
2017-07-07T05:21:38.444Z,99.99
2017-07-07T05:22:39.872Z,99.99
2017-07-07T05:23:41.313Z,99.99
2017-07-07T05:24:42.746Z,99.99
2017-07-07T05:25:44.177Z,99.99
2017-07-07T05:26:45.593Z,99.99
2017-07-07T05:27:47.032Z,99.99
2017-07-07T05:28:48.459Z,99.99
2017-07-07T05:29:49.890Z,99.99
2017-07-07T05:30:51.418Z,99.99
2017-07-07T05:31:52.846Z,99.99
2017-07-07T05:32:54.272Z,99.99
2017-07-07T05:33:55.705Z,99.99
2017-07-07T05:34:57.141Z,99.99
2017-07-07T05:35:58.580Z,99.99
2017-07-07T05:37:00.010Z,99.99
2017-07-07T05:38:01.435Z,99.99
2017-07-07T05:39:02.866Z,99.99
2017-07-07T05:40:04.298Z,99.99
2017-07-07T05:41:05.733Z,99.99
2017-07-07T05:42:07.171Z,99.99
2017-07-07T05:43:08.601Z,99.99
2017-07-07T05:44:10.028Z,99.99
2017-07-07T05:45:11.458Z,99.99
2017-07-07T05:46:12.887Z,99.99
2017-07-07T05:47:14.326Z,99.99
2017-07-07T05:48:15.749Z,99.99
2017-07-07T05:49:17.178Z,99.99
2017-07-07T05:50:18.607Z,99.99
2017-07-07T05:51:20.030Z,99.99
2017-07-07T05:52:21.461Z,99.99
2017-07-07T05:53:22.895Z,99.99
2017-07-07T05:54:24.332Z,99.99
2017-07-07T05:55:25.760Z,99.99
2017-07-07T05:56:27.190Z,99.99
2017-07-07T05:57:28.620Z,99.99
2017-07-07T05:58:30.054Z,99.99
2017-07-07T05:59:31.482Z,99.99
2017-07-07T06:00:32.913Z,99.99
2017-07-07T06:01:34.352Z,99.99
2017-07-07T06:02:35.783Z,99.99
2017-07-07T06:03:37.213Z,99.99
2017-07-07T06:04:38.652Z,99.99
2017-07-07T06:05:40.090Z,99.99
2017-07-07T06:06:41.520Z,99.99
2017-07-07T06:07:42.959Z,99.99
2017-07-07T06:08:44.388Z,99.99
2017-07-07T06:09:45.824Z,99.99
2017-07-07T06:10:47.253Z,99.99
2017-07-07T06:11:48.679Z,99.99
2017-07-07T06:12:50.104Z,99.99
2017-07-07T06:13:51.531Z,99.99
2017-07-07T06:14:52.959Z,99.99
2017-07-07T06:15:54.391Z,99.99
2017-07-07T06:16:55.819Z,99.99
2017-07-07T06:17:57.245Z,99.99
2017-07-07T06:18:58.671Z,99.99
2017-07-07T06:20:00.152Z,99.99
2017-07-07T06:21:01.580Z,99.99
2017-07-07T06:22:03.007Z,99.99
2017-07-07T06:23:04.439Z,99.99
2017-07-07T06:24:05.873Z,99.99
2017-07-07T06:25:07.307Z,99.99
2017-07-07T06:26:08.741Z,99.99
2017-07-07T06:27:10.173Z,99.99
2017-07-07T06:28:11.602Z,99.99
2017-07-07T06:29:13.031Z,99.99
2017-07-07T06:30:14.467Z,99.99
2017-07-07T06:31:15.903Z,99.99
2017-07-07T06:32:17.367Z,99.99
2017-07-07T06:33:18.820Z,99.99
2017-07-07T06:34:20.366Z,99.99
2017-07-07T06:35:21.795Z,99.99
2017-07-07T06:36:23.222Z,99.99
2017-07-07T06:37:24.644Z,99.99
2017-07-07T06:38:26.070Z,99.99
2017-07-07T06:39:27.501Z,99.99
2017-07-07T06:40:28.928Z,99.99
2017-07-07T06:41:30.425Z,99.99
2017-07-07T06:42:31.874Z,99.99
2017-07-07T06:43:33.302Z,99.99
2017-07-07T06:44:34.736Z,99.99
2017-07-07T06:45:36.172Z,99.99
2017-07-07T06:46:37.593Z,99.99
2017-07-07T06:47:39.018Z,99.99
2017-07-07T06:48:40.522Z,99.99
2017-07-07T06:49:41.957Z,99.99
2017-07-07T06:50:43.394Z,99.99
2017-07-07T06:51:44.822Z,99.99
2017-07-07T06:52:46.289Z,99.99
2017-07-07T06:53:47.716Z,99.99
2017-07-07T06:54:49.157Z,99.99
2017-07-07T06:55:50.591Z,99.99
2017-07-07T06:56:52.133Z,99.99
2017-07-07T06:57:53.568Z,99.99
2017-07-07T06:58:55.003Z,99.99
2017-07-07T06:59:56.424Z,99.99
2017-07-07T07:00:57.857Z,99.99
2017-07-07T07:01:59.288Z,99.99
2017-07-07T07:03:00.722Z,99.99
2017-07-07T07:04:02.164Z,99.99
2017-07-07T07:05:03.602Z,99.99
2017-07-07T07:06:05.038Z,99.99
2017-07-07T07:07:06.470Z,99.99
2017-07-07T07:08:07.905Z,99.99
2017-07-07T07:09:09.337Z,99.99
2017-07-07T07:10:10.833Z,99.99
2017-07-07T07:11:12.201Z,99.99
2017-07-07T07:12:13.638Z,99.99
2017-07-07T07:13:15.065Z,99.99
2017-07-07T07:14:16.496Z,99.99
2017-07-07T07:15:17.927Z,99.99
2017-07-07T07:16:19.355Z,99.99
2017-07-07T07:17:20.783Z,99.99
2017-07-07T07:18:22.211Z,99.99
2017-07-07T07:19:23.645Z,99.99
2017-07-07T07:20:25.078Z,99.99
2017-07-07T07:21:26.496Z,99.99
2017-07-07T07:22:27.931Z,99.99
2017-07-07T07:23:29.358Z,99.99
2017-07-07T07:24:30.789Z,99.99
2017-07-07T07:25:32.216Z,99.99
2017-07-07T07:26:33.641Z,99.99
2017-07-07T07:27:35.068Z,99.99
2017-07-07T07:28:36.500Z,99.99
2017-07-07T07:29:37.926Z,99.99
2017-07-07T07:30:39.349Z,99.99
2017-07-07T07:31:41.081Z,99.99
2017-07-07T07:32:42.508Z,99.99
2017-07-07T07:33:43.940Z,99.99
2017-07-07T07:34:45.374Z,99.99
2017-07-07T07:35:46.816Z,99.99
2017-07-07T07:36:48.244Z,99.99
2017-07-07T07:37:49.673Z,99.99
2017-07-07T07:38:51.099Z,99.99
2017-07-07T07:39:52.536Z,99.99
2017-07-07T07:40:53.964Z,99.99
2017-07-07T07:41:55.389Z,99.99
2017-07-07T07:42:56.814Z,99.99
2017-07-07T07:43:58.238Z,99.99
2017-07-07T07:44:59.664Z,99.99
2017-07-07T07:46:01.088Z,99.99
2017-07-07T07:47:02.519Z,99.99
2017-07-07T07:48:03.949Z,99.99
2017-07-07T07:49:05.377Z,99.99
2017-07-07T07:50:06.815Z,99.99
2017-07-07T07:51:08.241Z,99.99
2017-07-07T07:52:09.732Z,99.99
2017-07-07T07:53:11.100Z,99.99
2017-07-07T07:54:12.538Z,99.99
2017-07-07T07:55:13.966Z,99.99
2017-07-07T07:56:15.395Z,99.99
2017-07-07T07:57:16.831Z,99.99
2017-07-07T07:58:18.256Z,99.99
2017-07-07T07:59:19.693Z,99.99
2017-07-07T08:00:21.124Z,99.99
2017-07-07T08:01:22.551Z,99.99
2017-07-07T08:02:23.982Z,99.99
2017-07-07T08:03:25.408Z,99.99
2017-07-07T08:04:26.840Z,99.99
2017-07-07T08:05:28.277Z,99.99
2017-07-07T08:06:29.712Z,99.99
2017-07-07T08:07:31.141Z,99.99
2017-07-07T08:08:32.565Z,99.99
2017-07-07T08:09:34.005Z,99.99
2017-07-07T08:10:35.427Z,99.99
2017-07-07T08:11:36.850Z,99.99
2017-07-07T08:12:38.277Z,99.99
2017-07-07T08:13:39.713Z,99.99
2017-07-07T08:14:41.170Z,99.99
2017-07-07T08:15:42.579Z,99.99
2017-07-07T08:16:44.010Z,99.99
2017-07-07T08:17:45.442Z,99.99
2017-07-07T08:18:46.875Z,99.99
2017-07-07T08:19:48.304Z,99.99
2017-07-07T08:20:49.732Z,99.99
2017-07-07T08:21:51.169Z,99.99
2017-07-07T08:22:52.599Z,99.99
2017-07-07T08:23:54.028Z,99.99
2017-07-07T08:24:55.461Z,99.99
2017-07-07T08:25:56.886Z,99.99
2017-07-07T08:26:58.936Z,99.99
2017-07-07T08:28:00.369Z,99.99
2017-07-07T08:29:01.795Z,99.99
2017-07-07T08:30:03.223Z,99.99
2017-07-07T08:31:04.753Z,99.99
2017-07-07T08:32:06.300Z,99.99
2017-07-07T08:33:07.738Z,99.99
2017-07-07T08:34:09.193Z,99.99
2017-07-07T08:35:10.629Z,99.99
2017-07-07T08:36:12.069Z,99.99
2017-07-07T08:37:13.503Z,99.99
2017-07-07T08:38:14.956Z,99.99
2017-07-07T08:39:16.384Z,99.99
2017-07-07T08:40:17.819Z,99.99
2017-07-07T08:41:19.254Z,99.99
2017-07-07T08:42:20.678Z,99.99
2017-07-07T08:43:22.106Z,99.99
2017-07-07T08:44:23.542Z,99.99
2017-07-07T08:45:24.976Z,99.99
2017-07-07T08:46:26.404Z,99.99
2017-07-07T08:47:27.828Z,99.99
2017-07-07T08:48:29.263Z,99.99
2017-07-07T08:49:30.696Z,99.99
2017-07-07T08:50:32.124Z,99.99
2017-07-07T08:51:33.554Z,99.99
2017-07-07T08:52:34.996Z,99.99
2017-07-07T08:53:36.430Z,99.99
2017-07-07T08:54:37.860Z,99.99
2017-07-07T08:55:39.295Z,99.99
2017-07-07T08:56:40.731Z,99.99
2017-07-07T08:57:42.163Z,99.99
2017-07-07T08:58:43.601Z,99.99
2017-07-07T08:59:45.047Z,99.99
2017-07-07T09:00:46.481Z,99.99
2017-07-07T09:01:47.913Z,99.99
2017-07-07T09:02:49.354Z,99.99
2017-07-07T09:03:50.783Z,99.99
2017-07-07T09:04:52.216Z,99.99
2017-07-07T09:05:53.657Z,99.99
2017-07-07T09:06:55.088Z,99.99
2017-07-07T09:07:56.532Z,99.99
2017-07-07T09:08:57.957Z,99.99
2017-07-07T09:09:59.403Z,99.99
2017-07-07T09:11:00.839Z,99.99
2017-07-07T09:12:02.267Z,99.99
2017-07-07T09:13:03.698Z,99.99
2017-07-07T09:14:05.133Z,99.99
2017-07-07T09:15:06.569Z,99.99
2017-07-07T09:16:08.007Z,99.99
2017-07-07T09:17:09.445Z,99.70
2017-07-07T09:18:10.881Z,99.51
2017-07-07T09:19:12.314Z,99.99
2017-07-07T09:20:13.753Z,99.99
2017-07-07T09:21:15.188Z,99.99
2017-07-07T09:22:16.630Z,99.99
2017-07-07T09:23:18.057Z,99.99
2017-07-07T09:24:19.496Z,99.12
2017-07-07T09:25:20.928Z,99.99
2017-07-07T09:26:22.363Z,97.38
2017-07-07T09:27:23.795Z,97.67
2017-07-07T09:28:25.229Z,99.99
2017-07-07T09:29:26.666Z,98.78
2017-07-07T09:30:28.128Z,99.99
2017-07-07T09:31:29.555Z,97.67
2017-07-07T09:32:31.058Z,99.55
2017-07-07T09:33:32.658Z,98.25
2017-07-07T09:34:34.833Z,98.73
2017-07-07T09:35:36.267Z,99.22
2017-07-07T09:36:37.705Z,98.93
2017-07-07T09:37:39.145Z,97.71
2017-07-07T09:38:40.581Z,96.84
2017-07-07T09:39:42.012Z,97.13
2017-07-07T09:40:43.442Z,96.45
2017-07-07T09:41:44.875Z,97.52
2017-07-07T09:42:46.308Z,97.13
2017-07-07T09:43:47.750Z,94.51
2017-07-07T09:44:49.184Z,95.00
2017-07-07T09:45:50.625Z,94.13
2017-07-07T09:46:52.061Z,96.26
2017-07-07T09:47:53.492Z,96.55
2017-07-07T09:48:54.921Z,94.71
2017-07-07T09:49:56.356Z,95.82
2017-07-07T09:50:57.788Z,95.78
2017-07-07T09:51:59.228Z,94.90
2017-07-07T09:53:00.667Z,96.11
2017-07-07T09:54:02.102Z,95.82
2017-07-07T09:55:03.544Z,95.19
2017-07-07T09:56:04.983Z,93.79
2017-07-07T09:57:06.415Z,94.85
2017-07-07T09:58:11.269Z,97.08
2017-07-07T09:59:12.724Z,96.01
2017-07-07T10:00:14.159Z,93.59
2017-07-07T10:01:15.602Z,94.42
2017-07-07T10:02:17.050Z,92.52
2017-07-07T10:03:18.489Z,93.01
2017-07-07T10:04:19.929Z,93.30
2017-07-07T10:05:21.361Z,93.79
2017-07-07T10:06:22.796Z,91.99
2017-07-07T10:07:24.242Z,93.59
2017-07-07T10:08:25.697Z,93.93
2017-07-07T10:09:27.146Z,92.67
2017-07-07T10:10:28.575Z,92.62
2017-07-07T10:11:30.009Z,94.07
2017-07-07T10:12:31.444Z,94.56
2017-07-07T10:13:32.880Z,94.12
2017-07-07T10:14:34.322Z,94.70
2017-07-07T10:15:35.772Z,93.63
2017-07-07T10:16:37.201Z,91.64
2017-07-07T10:17:38.632Z,92.42
2017-07-07T10:18:40.065Z,93.29
2017-07-07T10:19:41.489Z,92.42
2017-07-07T10:20:42.933Z,91.64
2017-07-07T10:21:44.372Z,91.11
2017-07-07T10:22:45.806Z,90.67
2017-07-07T10:23:47.234Z,92.42
2017-07-07T10:24:48.673Z,93.01
2017-07-07T10:25:50.115Z,91.25
2017-07-07T10:26:51.554Z,93.29
2017-07-07T10:27:52.992Z,93.10
2017-07-07T10:28:54.808Z,92.47
2017-07-07T10:29:56.268Z,92.27
2017-07-07T10:30:57.706Z,91.30
2017-07-07T10:31:59.140Z,91.25
2017-07-07T10:33:00.572Z,91.64
2017-07-07T10:34:02.010Z,89.69
2017-07-07T10:35:03.443Z,90.08
2017-07-07T10:36:04.877Z,88.04
2017-07-07T10:37:06.315Z,88.14
2017-07-07T10:38:07.756Z,89.59
2017-07-07T10:39:09.186Z,88.38
2017-07-07T10:40:10.622Z,89.69
2017-07-07T10:41:12.061Z,88.52
2017-07-07T10:42:13.492Z,87.54
2017-07-07T10:43:14.932Z,85.60
2017-07-07T10:44:16.365Z,85.27
2017-07-07T10:45:17.803Z,86.72
2017-07-07T10:46:19.234Z,86.82
2017-07-07T10:47:20.664Z,88.18
2017-07-07T10:48:22.094Z,88.76
2017-07-07T10:49:23.532Z,88.09
2017-07-07T10:50:24.965Z,87.54
2017-07-07T10:51:26.405Z,87.45
2017-07-07T10:52:27.841Z,88.76
2017-07-07T10:53:29.276Z,88.76
2017-07-07T10:54:30.710Z,88.86
2017-07-07T10:55:32.150Z,89.15
2017-07-07T10:56:33.583Z,90.42
2017-07-07T10:57:35.021Z,87.40
2017-07-07T10:58:36.453Z,89.93
2017-07-07T10:59:37.894Z,88.67
2017-07-07T11:00:39.340Z,90.03
2017-07-07T11:01:40.769Z,92.21
2017-07-07T11:02:42.198Z,91.00
2017-07-07T11:03:43.637Z,87.50
2017-07-07T11:04:45.077Z,89.06
2017-07-07T11:05:46.513Z,90.71
2017-07-07T11:06:47.952Z,90.03
2017-07-07T11:07:49.391Z,88.28
2017-07-07T11:08:50.834Z,89.31
2017-07-07T11:09:52.274Z,87.75
2017-07-07T11:10:53.705Z,89.59
2017-07-07T11:11:55.145Z,89.59
2017-07-07T11:12:56.583Z,88.18
2017-07-07T11:13:58.025Z,89.20
2017-07-07T11:14:59.463Z,89.20
2017-07-07T11:16:00.901Z,86.82
2017-07-07T11:17:02.336Z,87.40
2017-07-07T11:18:03.779Z,87.16
2017-07-07T11:19:05.206Z,86.96
2017-07-07T11:20:06.645Z,85.79
2017-07-07T11:21:08.079Z,89.39
2017-07-07T11:22:09.511Z,89.49
2017-07-07T11:23:10.942Z,89.98
2017-07-07T11:24:12.375Z,87.60
2017-07-07T11:25:13.811Z,88.76
2017-07-07T11:26:15.249Z,88.72
2017-07-07T11:27:16.681Z,89.45
2017-07-07T11:28:18.161Z,88.92
2017-07-07T11:29:19.626Z,89.40
2017-07-07T11:30:21.067Z,89.21
2017-07-07T11:31:22.507Z,89.59
2017-07-07T11:32:23.944Z,89.98
2017-07-07T11:33:25.381Z,90.18
2017-07-07T11:34:26.815Z,91.83
2017-07-07T11:35:28.250Z,92.71
2017-07-07T11:36:29.686Z,92.47
2017-07-07T11:37:31.120Z,93.63
2017-07-07T11:38:32.557Z,94.70
2017-07-07T11:39:33.991Z,93.24
2017-07-07T11:40:35.427Z,94.02
2017-07-07T11:41:36.882Z,94.41
2017-07-07T11:42:38.313Z,92.66
2017-07-07T11:43:39.762Z,91.59
2017-07-07T11:44:41.206Z,92.66
2017-07-07T11:45:42.657Z,93.38
2017-07-07T11:46:44.099Z,94.46
2017-07-07T11:47:45.531Z,91.83
2017-07-07T11:48:46.963Z,92.60
2017-07-07T11:49:48.403Z,90.22
2017-07-07T11:50:49.833Z,91.82
2017-07-07T11:51:51.267Z,88.17
2017-07-07T11:52:52.708Z,87.78
2017-07-07T11:53:54.141Z,85.88
2017-07-07T11:54:55.565Z,87.05
2017-07-07T11:55:56.999Z,87.43
2017-07-07T11:56:58.438Z,88.31
2017-07-07T11:57:59.877Z,88.46
2017-07-07T11:59:01.310Z,88.21
2017-07-07T12:00:02.746Z,86.46
2017-07-07T12:01:04.185Z,89.69
2017-07-07T12:02:05.628Z,90.03
2017-07-07T12:03:07.077Z,89.39
2017-07-07T12:04:08.520Z,87.49
2017-07-07T12:05:09.958Z,87.01
2017-07-07T12:06:11.396Z,86.61
2017-07-07T12:07:12.838Z,85.93
2017-07-07T12:08:14.273Z,85.14
2017-07-07T12:09:15.703Z,85.47
2017-07-07T12:10:17.163Z,86.25
2017-07-07T12:11:18.603Z,84.89
2017-07-07T12:12:20.041Z,85.38
2017-07-07T12:13:21.479Z,87.42
2017-07-07T12:14:22.924Z,85.47
2017-07-07T12:15:24.357Z,88.49
2017-07-07T12:16:25.793Z,86.35
2017-07-07T12:17:27.229Z,85.28
2017-07-07T12:18:28.665Z,86.27
2017-07-07T12:19:30.103Z,86.76
2017-07-07T12:20:31.548Z,85.97
2017-07-07T12:21:32.988Z,84.94
2017-07-07T12:22:34.427Z,84.75
2017-07-07T12:23:35.861Z,86.16
2017-07-07T12:24:37.308Z,84.07
2017-07-07T12:25:38.743Z,85.18
2017-07-07T12:26:40.176Z,85.28
2017-07-07T12:27:41.626Z,84.32
2017-07-07T12:28:43.058Z,85.74
2017-07-07T12:29:44.516Z,85.83
2017-07-07T12:30:47.241Z,85.93
2017-07-07T12:31:48.427Z,86.91
2017-07-07T12:32:49.862Z,85.00
2017-07-07T12:33:51.329Z,83.73
2017-07-07T12:34:52.768Z,83.54
2017-07-07T12:35:54.207Z,85.39
2017-07-07T12:36:55.647Z,85.00
2017-07-07T12:37:57.076Z,84.42
2017-07-07T12:38:58.514Z,85.39
2017-07-07T12:39:59.954Z,86.13
2017-07-07T12:41:01.393Z,86.13
2017-07-07T12:42:02.846Z,86.57
2017-07-07T12:43:04.285Z,86.24
2017-07-07T12:44:05.719Z,84.96
2017-07-07T12:45:07.174Z,84.61
2017-07-07T12:46:08.615Z,85.24
2017-07-07T12:47:10.062Z,82.35
2017-07-07T12:48:11.502Z,80.60
2017-07-07T12:49:12.934Z,84.93
2017-07-07T12:50:14.368Z,79.82
2017-07-07T12:51:15.823Z,80.56
2017-07-07T12:52:17.269Z,80.56
2017-07-07T12:53:18.702Z,80.41
2017-07-07T12:54:20.142Z,80.80
2017-07-07T12:55:21.586Z,80.05
2017-07-07T12:56:23.019Z,80.39
2017-07-07T12:57:24.465Z,81.03
2017-07-07T12:58:25.913Z,79.12
2017-07-07T12:59:27.349Z,81.11
2017-07-07T13:00:28.786Z,79.02
2017-07-07T13:01:30.236Z,78.83
2017-07-07T13:02:31.670Z,77.36
2017-07-07T13:03:33.114Z,77.40
2017-07-07T13:04:34.563Z,76.23
2017-07-07T13:05:36.964Z,74.77
2017-07-07T13:06:38.407Z,76.03
2017-07-07T13:07:39.837Z,77.75
2017-07-07T13:08:41.269Z,78.34
2017-07-07T13:09:42.723Z,77.56
2017-07-07T13:10:44.162Z,79.20